createdAt,value
2022-08-19T18:40:05.569Z,25.80
2022-08-19T18:42:51.046Z,25.50
2022-08-19T18:45:36.378Z,25.50
2022-08-19T18:48:27.096Z,25.40
2022-08-19T18:50:56.624Z,25.40
2022-08-19T18:53:23.491Z,25.40
2022-08-19T18:55:53.882Z,25.40
2022-08-19T18:58:26.573Z,25.40
2022-08-19T19:00:56.913Z,25.40
2022-08-19T19:03:25.468Z,25.40
2022-08-19T19:05:53.185Z,25.40
2022-08-19T19:08:19.948Z,25.40
2022-08-19T19:10:47.727Z,25.40
2022-08-19T19:13:17.754Z,25.40
2022-08-19T19:15:44.551Z,25.40
2022-08-19T19:18:13.492Z,25.40
2022-08-19T19:20:43.151Z,25.40
2022-08-19T19:23:09.931Z,25.40
2022-08-19T19:25:50.373Z,25.30
2022-08-19T19:28:28.779Z,25.30
2022-08-19T19:31:00.289Z,25.30
2022-08-19T19:33:27.984Z,25.30
2022-08-19T19:35:54.836Z,25.30
2022-08-19T19:38:21.562Z,25.20
2022-08-19T19:40:48.331Z,25.20
2022-08-19T19:43:18.275Z,25.20
2022-08-19T19:45:47.404Z,25.20
2022-08-19T19:48:16.567Z,25.20
2022-08-19T19:50:44.866Z,25.20
2022-08-19T19:53:13.103Z,25.10
2022-08-19T19:55:41.140Z,25.10
2022-08-19T19:58:08.315Z,25.10
2022-08-19T20:00:35.437Z,25.10
2022-08-19T20:03:02.258Z,25.00
2022-08-19T20:05:29.041Z,25.00
2022-08-19T20:08:14.546Z,25.00
2022-08-19T20:10:43.219Z,25.00
2022-08-19T20:13:11.497Z,25.00
2022-08-19T20:15:42.492Z,24.90
2022-08-19T20:18:11.529Z,24.90
2022-08-19T20:20:39.147Z,24.90
2022-08-19T20:23:06.327Z,24.90
2022-08-19T20:25:34.016Z,24.80
2022-08-19T20:28:01.335Z,24.80
2022-08-19T20:30:32.103Z,24.80
2022-08-19T20:33:00.072Z,24.80
2022-08-19T20:35:26.847Z,24.80
2022-08-19T20:37:57.984Z,24.80
2022-08-19T20:40:26.828Z,24.80
2022-08-19T20:42:54.364Z,24.80
2022-08-19T20:45:33.083Z,24.80
2022-08-19T20:48:05.319Z,24.70
2022-08-19T20:50:35.052Z,24.70
2022-08-19T20:53:09.001Z,24.70
2022-08-19T20:55:35.985Z,24.90
2022-08-19T20:58:02.800Z,24.70
2022-08-19T21:00:30.518Z,25.10
2022-08-19T21:02:57.457Z,24.60
2022-08-19T21:05:28.422Z,24.60
2022-08-19T21:07:57.721Z,24.60
2022-08-19T21:10:26.215Z,24.60
2022-08-19T21:12:53.564Z,24.60
2022-08-19T21:15:20.340Z,24.50
2022-08-19T21:17:48.548Z,24.50
2022-08-19T21:20:15.570Z,24.50
2022-08-19T21:22:42.322Z,24.40
2022-08-19T21:25:09.219Z,24.30
2022-08-19T21:27:36.115Z,24.30
2022-08-19T21:30:04.310Z,24.30
2022-08-19T21:32:31.074Z,24.20
2022-08-19T21:34:57.838Z,24.20
2022-08-19T21:37:25.075Z,24.10
2022-08-19T21:39:53.737Z,24.10
2022-08-19T21:42:20.915Z,24.10
2022-08-19T21:44:47.656Z,24.10
2022-08-19T21:47:14.404Z,24.10
2022-08-19T21:49:41.254Z,24.00
2022-08-19T21:52:08.745Z,24.00
2022-08-19T21:54:38.564Z,23.90
2022-08-19T21:57:07.010Z,23.90
2022-08-19T21:59:43.631Z,23.90
2022-08-19T22:02:21.955Z,23.90
2022-08-19T22:04:53.215Z,23.90
2022-08-19T22:07:21.403Z,23.80
2022-08-19T22:09:50.405Z,23.80
2022-08-19T22:12:30.304Z,23.80
2022-08-19T22:14:58.402Z,23.80
2022-08-19T22:17:27.469Z,23.70
2022-08-19T22:19:55.941Z,23.70
2022-08-19T22:22:28.519Z,23.70
2022-08-19T22:25:07.160Z,23.60
2022-08-19T22:27:34.328Z,23.70
2022-08-19T22:30:01.533Z,23.70
2022-08-19T22:32:30.849Z,23.60
2022-08-19T22:34:59.313Z,23.70
2022-08-19T22:37:27.653Z,23.90
2022-08-19T22:39:54.580Z,23.50
2022-08-19T22:42:22.101Z,23.50
2022-08-19T22:44:49.141Z,23.50
2022-08-19T22:47:16.363Z,23.50
2022-08-19T22:49:44.138Z,23.40
2022-08-19T22:52:20.269Z,23.50
2022-08-19T22:54:52.305Z,23.70
2022-08-19T22:57:20.870Z,23.40
2022-08-19T22:59:53.015Z,23.30
2022-08-19T23:02:24.748Z,23.40
2022-08-19T23:04:52.207Z,23.30
2022-08-19T23:07:23.570Z,23.30
2022-08-19T23:09:51.157Z,23.30
2022-08-19T23:12:27.893Z,23.30
2022-08-19T23:14:54.713Z,23.20
2022-08-19T23:17:21.777Z,23.30
2022-08-19T23:19:48.619Z,23.20
2022-08-19T23:22:19.196Z,23.20
2022-08-19T23:24:52.070Z,23.20
2022-08-19T23:27:41.625Z,23.20
2022-08-19T23:30:27.406Z,23.20
2022-08-19T23:33:07.696Z,23.20
2022-08-19T23:35:38.386Z,23.20
2022-08-19T23:38:06.764Z,23.10
2022-08-19T23:40:34.807Z,23.10
2022-08-19T23:43:02.845Z,23.10
2022-08-19T23:45:38.872Z,23.10
2022-08-19T23:48:06.964Z,23.10
2022-08-19T23:50:34.713Z,23.10
2022-08-19T23:53:01.733Z,23.10
2022-08-19T23:55:32.978Z,23.10
2022-08-19T23:58:01.449Z,23.10
